Weather at Lapoint Seaplane Base

Public forecast

Using degrees Fahrenheit for public forecast. Weather courtesy of forecast.io.

Closest aviation weather report (METAR) to Lapoint Seaplane Base

Closest report is Drummond Island Airport, 2.9 nm (5.3 km) SW. Retrieved 2021/10/23 04:35 UTC (0 seconds ago):

KDRM 230435Z AUTO 00000KT 10SM OVC110 03/03 A2997 RMK AO2 T00280028

Closest aviation forecast (TAF) to Lapoint Seaplane Base

Closest forecast is Sault Ste Marie Airport, 43.2 nm (80.0 km) NW. Retrieved 2021-10-23 02:39 UTC (2 hours ago):

TAF TAF CYAM 230138Z 2302/2314 VRB03KT P6SM SCT015 BKN100 TEMPO 2302/2312 21/2SM -SHRA BR BKN008 OVC015 FM231200 VRB03KT P6SM BKN030 TEMPO 2312/2314 P6SM -SHRA BKN020 RMK NXT FCST BY 230800Z